createdAt,value
2019-03-12T00:01:32.629Z,101480.42
2019-03-12T00:06:37.454Z,101493.89
2019-03-12T00:11:41.475Z,101498.54
2019-03-12T00:16:45.566Z,101497.52
2019-03-12T00:21:49.671Z,101497.87
2019-03-12T00:26:53.859Z,101495.28
2019-03-12T00:31:57.896Z,101499.20
2019-03-12T00:37:01.917Z,101502.95
2019-03-12T00:42:05.952Z,101497.70
2019-03-12T00:47:10.009Z,101506.53
2019-03-12T00:52:14.095Z,101500.08
2019-03-12T00:57:18.259Z,101527.23
2019-03-12T01:02:22.268Z,101542.29
2019-03-12T01:07:26.321Z,101555.91
2019-03-12T01:12:30.976Z,101562.58
2019-03-12T01:17:35.117Z,101577.02
2019-03-12T01:22:40.075Z,101570.69
2019-03-12T01:27:44.089Z,101579.26
2019-03-12T01:32:48.136Z,101584.55
2019-03-12T01:37:52.302Z,101587.06
2019-03-12T01:42:56.331Z,101598.31
2019-03-12T01:48:00.371Z,101600.84
2019-03-12T01:53:04.372Z,101610.09
2019-03-12T01:58:08.410Z,101612.73
2019-03-12T02:03:12.470Z,101626.59
2019-03-12T02:08:16.515Z,101616.61
2019-03-12T02:13:20.570Z,101608.27
2019-03-12T02:18:24.640Z,101618.25
2019-03-12T02:23:29.250Z,101623.84
2019-03-12T02:28:33.344Z,101627.20
2019-03-12T02:33:37.332Z,101635.61
2019-03-12T02:38:41.493Z,101630.27
2019-03-12T02:43:45.542Z,101632.23
2019-03-12T02:48:49.565Z,101640.34
2019-03-12T02:53:53.563Z,101647.25
2019-03-12T02:58:57.663Z,101649.59
2019-03-12T03:04:01.707Z,101645.45
2019-03-12T03:09:06.687Z,101654.54
2019-03-12T03:14:29.714Z,101646.78
2019-03-12T03:19:34.255Z,101651.77
2019-03-12T03:24:38.295Z,101662.83
2019-03-12T03:29:42.422Z,101663.47
2019-03-12T03:34:46.446Z,101660.53
2019-03-12T03:39:50.517Z,101659.20
2019-03-12T03:44:54.650Z,101653.62
2019-03-12T03:49:58.717Z,101651.35
2019-03-12T03:55:02.795Z,101651.91
2019-03-12T04:00:09.459Z,101660.99
2019-03-12T04:05:13.582Z,101662.92
2019-03-12T04:10:17.654Z,101670.34
2019-03-12T04:15:21.765Z,101665.61
2019-03-12T04:20:25.767Z,101659.80
2019-03-12T04:25:29.788Z,101669.40
2019-03-12T04:30:34.084Z,101682.03
2019-03-12T04:35:38.087Z,101671.66
2019-03-12T04:40:42.420Z,101677.72
2019-03-12T04:45:46.492Z,101669.78
2019-03-12T04:50:51.784Z,101666.93
2019-03-12T04:55:55.817Z,101673.58
2019-03-12T05:00:59.923Z,101668.55
2019-03-12T05:06:04.150Z,101667.44
2019-03-12T05:11:08.227Z,101670.95
2019-03-12T05:16:12.232Z,101672.30
2019-03-12T05:21:16.289Z,101673.83
2019-03-12T05:26:20.700Z,101681.56
2019-03-12T05:31:24.817Z,101692.95
2019-03-12T05:36:28.910Z,101689.43
2019-03-12T05:41:33.043Z,101689.58
2019-03-12T05:46:37.078Z,101707.25
2019-03-12T05:51:41.118Z,101703.98
2019-03-12T05:56:45.154Z,101699.95
2019-03-12T06:01:49.304Z,101695.53
2019-03-12T06:06:53.398Z,101700.45
2019-03-12T06:11:57.716Z,101700.53
2019-03-12T06:17:01.748Z,101701.16
2019-03-12T06:22:05.810Z,101694.87
2019-03-12T06:27:10.644Z,101688.13
2019-03-12T06:32:14.656Z,101685.36
2019-03-12T06:37:18.708Z,101682.23
2019-03-12T06:42:22.701Z,101676.78
2019-03-12T06:47:26.818Z,101678.61
2019-03-12T06:52:30.935Z,101685.70
2019-03-12T06:57:38.373Z,101690.31
2019-03-12T07:02:42.958Z,101685.25
2019-03-12T07:07:47.464Z,101688.23
2019-03-12T07:12:51.545Z,101681.20
2019-03-12T07:17:55.877Z,101682.78
2019-03-12T07:22:59.897Z,101681.46
2019-03-12T07:28:03.966Z,101674.20
2019-03-12T07:33:08.139Z,101672.64
2019-03-12T07:38:12.772Z,101660.91
2019-03-12T07:43:16.956Z,101661.03
2019-03-12T07:48:21.024Z,101662.55
2019-03-12T07:53:25.041Z,101658.92
2019-03-12T07:58:35.676Z,101650.45
2019-03-12T08:03:34.877Z,101646.36
2019-03-12T08:08:38.930Z,101643.86
2019-03-12T08:13:42.960Z,101643.66
2019-03-12T08:18:46.975Z,101647.00
2019-03-12T08:23:51.037Z,101634.13
2019-03-12T08:28:55.118Z,101635.98
2019-03-12T08:33:59.176Z,101637.28
2019-03-12T08:39:04.142Z,101635.77
2019-03-12T08:44:08.504Z,101626.53
2019-03-12T08:49:12.576Z,101638.94
2019-03-12T08:54:16.964Z,101624.06
2019-03-12T08:59:21.105Z,101626.30
2019-03-12T09:04:25.116Z,101627.91
2019-03-12T09:09:29.271Z,101624.39
2019-03-12T09:14:33.310Z,101615.28
2019-03-12T09:19:37.412Z,101605.20
2019-03-12T09:24:43.196Z,101592.46
2019-03-12T09:29:47.244Z,101588.06
2019-03-12T09:34:51.625Z,101571.12
2019-03-12T09:39:55.695Z,101563.34
2019-03-12T09:44:59.749Z,101547.89
2019-03-12T09:50:04.179Z,101538.91
2019-03-12T09:55:08.537Z,101535.78
2019-03-12T10:00:16.576Z,101518.77
2019-03-12T10:05:18.773Z,101518.31
2019-03-12T10:10:22.801Z,101515.98
2019-03-12T10:15:26.863Z,101502.60
2019-03-12T10:20:30.904Z,101501.39
2019-03-12T10:25:34.947Z,101493.02
2019-03-12T10:30:38.976Z,101487.20
2019-03-12T10:35:43.305Z,101480.72
2019-03-12T10:40:47.686Z,101465.52
2019-03-12T10:45:51.735Z,101469.41
2019-03-12T10:50:55.770Z,101453.08
2019-03-12T10:55:59.802Z,101447.42
2019-03-12T11:01:05.698Z,101435.30
2019-03-12T11:06:10.118Z,101433.96
2019-03-12T11:11:17.257Z,101422.17
2019-03-12T11:16:21.657Z,101403.63
2019-03-12T11:21:25.697Z,101397.67
2019-03-12T11:26:29.857Z,101384.98
2019-03-12T11:31:33.883Z,101378.49
2019-03-12T11:36:39.227Z,101372.25
2019-03-12T11:41:44.605Z,101356.59
2019-03-12T11:46:50.625Z,101356.16
2019-03-12T11:51:56.277Z,101354.07
2019-03-12T11:57:02.546Z,101340.44
2019-03-12T12:02:07.653Z,101325.03
2019-03-12T12:07:14.280Z,101298.80
2019-03-12T12:12:18.384Z,101294.84
2019-03-12T12:17:22.419Z,101300.30
2019-03-12T12:22:26.462Z,101288.07
2019-03-12T12:27:30.581Z,101272.88
2019-03-12T12:32:34.693Z,101256.11
2019-03-12T12:37:38.774Z,101239.36
2019-03-12T12:42:42.801Z,101212.13
2019-03-12T12:47:46.856Z,101212.13
2019-03-12T12:52:50.900Z,101206.77
2019-03-12T12:57:54.948Z,101207.33
2019-03-12T13:02:58.975Z,101196.18
2019-03-12T13:08:03.046Z,101191.34
2019-03-12T13:13:07.125Z,101179.63
2019-03-12T13:18:11.188Z,101163.03
2019-03-12T13:23:15.294Z,101165.34
2019-03-12T13:28:19.433Z,101165.61
2019-03-12T13:33:23.674Z,101148.28
2019-03-12T13:38:27.812Z,101146.45
2019-03-12T13:43:31.881Z,101135.82
2019-03-12T13:48:36.021Z,101109.12
2019-03-12T13:53:40.041Z,101105.59
2019-03-12T13:58:44.066Z,101097.77
2019-03-12T14:03:48.170Z,101097.77
2019-03-12T14:08:52.192Z,101076.31
2019-03-12T14:13:56.295Z,101072.52
2019-03-12T14:19:00.799Z,101045.75
2019-03-12T14:24:04.818Z,101045.28
2019-03-12T14:29:08.960Z,101034.67
2019-03-12T14:34:13.054Z,101007.79
2019-03-12T14:39:18.550Z,100988.84
2019-03-12T14:44:22.596Z,100988.84
2019-03-12T14:49:26.644Z,100993.70
2019-03-12T14:54:30.768Z,100977.52
2019-03-12T14:59:35.485Z,100972.13
2019-03-12T15:04:39.728Z,100956.69
2019-03-12T15:09:43.873Z,100949.47
2019-03-12T15:14:48.259Z,100926.38
2019-03-12T15:19:52.322Z,100926.20
2019-03-12T15:24:56.419Z,100914.45
2019-03-12T15:30:19.300Z,100902.50
2019-03-12T15:35:25.221Z,100893.57
2019-03-12T15:40:30.206Z,100877.67
2019-03-12T15:45:36.015Z,100867.69
2019-03-12T15:50:41.675Z,100861.63
2019-03-12T15:55:47.617Z,100852.48
2019-03-12T16:00:52.333Z,100833.81
2019-03-12T16:05:56.577Z,100820.18
2019-03-12T16:11:00.933Z,100800.28
2019-03-12T16:16:05.174Z,100791.66
2019-03-12T16:21:09.483Z,100765.56
2019-03-12T16:26:14.378Z,100731.03
2019-03-12T16:31:18.988Z,100701.27
2019-03-12T16:36:23.499Z,100706.14
2019-03-12T16:41:29.741Z,100693.22
2019-03-12T16:46:35.393Z,100669.86
2019-03-12T16:51:41.220Z,100652.42
2019-03-12T16:56:48.621Z,100630.70
2019-03-12T17:01:56.114Z,100621.80
2019-03-12T17:07:02.712Z,100621.80
2019-03-12T17:12:08.740Z,100616.55
2019-03-12T17:17:15.306Z,100614.34
2019-03-12T17:22:20.453Z,100605.80
2019-03-12T17:27:24.720Z,100603.13
2019-03-12T17:32:29.478Z,100578.33
2019-03-12T17:37:34.846Z,100554.36
2019-03-12T17:42:39.179Z,100553.98
2019-03-12T17:47:43.358Z,100531.81
2019-03-12T17:52:47.671Z,100522.98
2019-03-12T17:57:51.959Z,100512.71
2019-03-12T18:02:56.170Z,100490.72
2019-03-12T18:08:02.573Z,100481.92
2019-03-12T18:13:09.702Z,100469.94
2019-03-12T18:18:15.353Z,100460.96
2019-03-12T18:23:21.411Z,100445.54
2019-03-12T18:28:28.639Z,100429.80
2019-03-12T18:33:33.232Z,100422.91
2019-03-12T18:38:38.648Z,100420.83
2019-03-12T18:43:42.881Z,100410.25
2019-03-12T18:48:47.106Z,100392.70
2019-03-12T18:53:52.202Z,100384.73
2019-03-12T18:58:56.287Z,100369.24
2019-03-12T19:04:00.835Z,100361.48
2019-03-12T19:09:06.703Z,100355.10
2019-03-12T19:14:10.767Z,100336.80
2019-03-12T19:19:15.255Z,100317.33
2019-03-12T19:24:19.299Z,100314.09
2019-03-12T19:29:23.422Z,100284.00
2019-03-12T19:34:27.631Z,100271.72
2019-03-12T19:39:31.765Z,100247.67
2019-03-12T19:44:39.076Z,100231.84
2019-03-12T19:49:50.460Z,100212.00
2019-03-12T19:55:00.890Z,100201.33
2019-03-12T20:00:11.612Z,100179.47
2019-03-12T20:05:18.310Z,100161.98
2019-03-12T20:11:28.212Z,100153.52
2019-03-12T20:17:41.718Z,100137.44
2019-03-12T20:23:31.804Z,100119.09
2019-03-12T20:29:12.701Z,100099.13
2019-03-12T20:35:19.742Z,100098.85
2019-03-12T20:41:04.956Z,100073.73
2019-03-12T20:46:55.936Z,100072.17
2019-03-12T20:52:37.202Z,100060.23
2019-03-12T20:58:22.287Z,100034.20
2019-03-12T21:04:20.913Z,100010.76
2019-03-12T21:10:00.407Z,99996.61
2019-03-12T21:15:44.213Z,99980.83
2019-03-12T21:21:23.522Z,99977.19
2019-03-12T21:26:53.681Z,99970.06
2019-03-12T21:31:58.086Z,99947.79
2019-03-12T21:37:02.745Z,99936.50
2019-03-12T21:42:08.035Z,99918.69
2019-03-12T21:47:14.265Z,99910.25
2019-03-12T21:52:21.367Z,99899.41
2019-03-12T21:57:29.322Z,99898.27
2019-03-12T22:02:33.601Z,99879.16
2019-03-12T22:07:39.528Z,99870.50
2019-03-12T22:12:43.993Z,99856.22
2019-03-12T22:17:48.284Z,99868.83
2019-03-12T22:22:52.359Z,99872.17
2019-03-12T22:27:56.452Z,99864.02
2019-03-12T22:33:00.524Z,99840.25
2019-03-12T22:38:04.672Z,99816.80
2019-03-12T22:43:08.793Z,99805.50
2019-03-12T22:48:12.830Z,99798.84
2019-03-12T22:53:16.885Z,99799.55
2019-03-12T22:58:20.992Z,99816.65
2019-03-12T23:03:25.011Z,99764.27
2019-03-12T23:08:29.067Z,99756.45
2019-03-12T23:13:33.167Z,99743.97
2019-03-12T23:18:37.746Z,99728.05
2019-03-12T23:23:41.786Z,99724.91
2019-03-12T23:28:45.962Z,99738.19
2019-03-12T23:33:50.551Z,99726.70
2019-03-12T23:38:54.560Z,99686.16
2019-03-12T23:43:58.592Z,99662.11
2019-03-12T23:49:02.674Z,99648.81
2019-03-12T23:54:06.687Z,99626.64
2019-03-12T23:59:11.028Z,99625.61
